DLH6CN EDDF-EDDN
Flight info
| Callsign | DLH6CN |
|---|---|
| Flight time | 0h 30m |
| Altitude | 21000 |
| Route | CINDY8S/18 CINDY Z74 HAREM T104 ELMOX DCT LETKU LETKU1V |
| Aircraft | A319/M-SDE2E3FGIJ1LORWXYZ/HB1 |
Departure
| Time | 2026-05-05 18:12 |
|---|---|
| Airport | Frankfurt Main Airport (EDDF) |
Arrival
| Time | 2026-05-05 18:43 |
|---|---|
| Airport | Nuremberg Airport (EDDN) |
| Time | Latitude | Longitude | Altitude | Speed | Heading |
|---|---|---|---|---|---|
| 2026-05-05 17:02 | 50.04063 | 8.55646 | 353 ft | 0 kts | 160° |
| 2026-05-05 17:03 | 50.04073 | 8.55684 | 358 ft | 0 kts | 160° |
| 2026-05-05 17:57 | 50.04071 | 8.55685 | 351 ft | 2 kts | 160° |
| 2026-05-05 17:57 | 50.04020 | 8.55710 | 356 ft | 11 kts | 172° |
| 2026-05-05 17:58 | 50.03968 | 8.55616 | 349 ft | 13 kts | 248° |
| 2026-05-05 17:58 | 50.03963 | 8.55480 | 352 ft | 13 kts | 306° |
| 2026-05-05 17:58 | 50.04042 | 8.55425 | 357 ft | 7 kts | 340° |
| 2026-05-05 17:58 | 50.04044 | 8.55424 | 357 ft | 0 kts | 340° |
| 2026-05-05 17:59 | 50.04045 | 8.55424 | 356 ft | 1 kts | 340° |
| 2026-05-05 17:59 | 50.04090 | 8.55379 | 356 ft | 12 kts | 296° |
| 2026-05-05 17:59 | 50.04075 | 8.55253 | 358 ft | 12 kts | 250° |
| 2026-05-05 17:59 | 50.04039 | 8.55103 | 354 ft | 19 kts | 249° |
| 2026-05-05 18:00 | 50.03990 | 8.54898 | 354 ft | 21 kts | 249° |
| 2026-05-05 18:00 | 50.03936 | 8.54676 | 354 ft | 23 kts | 249° |
| 2026-05-05 18:00 | 50.03878 | 8.54435 | 352 ft | 25 kts | 249° |
| 2026-05-05 18:00 | 50.03794 | 8.54200 | 350 ft | 25 kts | 250° |
| 2026-05-05 18:01 | 50.03732 | 8.53938 | 349 ft | 26 kts | 250° |
| 2026-05-05 18:01 | 50.03667 | 8.53671 | 342 ft | 26 kts | 249° |
| 2026-05-05 18:01 | 50.03603 | 8.53413 | 336 ft | 23 kts | 249° |
| 2026-05-05 18:01 | 50.03556 | 8.53217 | 338 ft | 3 kts | 250° |
| 2026-05-05 18:02 | 50.03556 | 8.53215 | 338 ft | 0 kts | 250° |
| 2026-05-05 18:02 | 50.03550 | 8.53191 | 339 ft | 7 kts | 250° |
| 2026-05-05 18:02 | 50.03530 | 8.53107 | 334 ft | 9 kts | 249° |
| 2026-05-05 18:03 | 50.03506 | 8.53007 | 338 ft | 11 kts | 249° |
| 2026-05-05 18:03 | 50.03499 | 8.52976 | 335 ft | 0 kts | 249° |
| 2026-05-05 18:04 | 50.03498 | 8.52972 | 336 ft | 2 kts | 249° |
| 2026-05-05 18:04 | 50.03486 | 8.52923 | 336 ft | 7 kts | 248° |
| 2026-05-05 18:05 | 50.03463 | 8.52842 | 337 ft | 9 kts | 245° |
| 2026-05-05 18:05 | 50.03454 | 8.52811 | 336 ft | 0 kts | 246° |
| 2026-05-05 18:07 | 50.03444 | 8.52774 | 333 ft | 7 kts | 247° |
| 2026-05-05 18:07 | 50.03435 | 8.52741 | 333 ft | 0 kts | 249° |
| 2026-05-05 18:09 | 50.03429 | 8.52716 | 335 ft | 9 kts | 248° |
| 2026-05-05 18:09 | 50.03391 | 8.52611 | 336 ft | 12 kts | 216° |
| 2026-05-05 18:10 | 50.03321 | 8.52594 | 336 ft | 0 kts | 180° |
| 2026-05-05 18:11 | 50.03320 | 8.52594 | 336 ft | 0 kts | 180° |
| 2026-05-05 18:12 | 50.03251 | 8.52594 | 334 ft | 39 kts | 179° |
| 2026-05-05 18:12 | 50.02694 | 8.52599 | 336 ft | 117 kts | 180° |
| 2026-05-05 18:12 | 50.01696 | 8.52596 | 547 ft | 154 kts | 181° |
| 2026-05-05 18:12 | 50.00628 | 8.52585 | 1283 ft | 153 kts | 181° |
| 2026-05-05 18:13 | 49.99529 | 8.52592 | 1872 ft | 167 kts | 182° |
| 2026-05-05 18:13 | 49.98295 | 8.52605 | 2321 ft | 189 kts | 181° |
| 2026-05-05 18:13 | 49.96936 | 8.53172 | 2671 ft | 220 kts | 152° |
| 2026-05-05 18:13 | 49.95830 | 8.54915 | 3375 ft | 236 kts | 123° |
| 2026-05-05 18:14 | 49.95024 | 8.57148 | 4356 ft | 238 kts | 121° |
| 2026-05-05 18:14 | 49.94275 | 8.59466 | 5354 ft | 243 kts | 111° |
| 2026-05-05 18:14 | 49.93966 | 8.62134 | 6068 ft | 264 kts | 96° |
| 2026-05-05 18:14 | 49.93843 | 8.65085 | 6758 ft | 280 kts | 96° |
| 2026-05-05 18:15 | 49.93421 | 8.68047 | 7659 ft | 284 kts | 114° |
| 2026-05-05 18:15 | 49.92417 | 8.70674 | 8624 ft | 285 kts | 133° |
| 2026-05-05 18:15 | 49.90931 | 8.72679 | 9628 ft | 285 kts | 148° |
| 2026-05-05 18:15 | 49.89298 | 8.74554 | 10298 ft | 303 kts | 141° |
| 2026-05-05 18:16 | 49.87870 | 8.77080 | 10775 ft | 325 kts | 127° |
| 2026-05-05 18:16 | 49.86731 | 8.80203 | 11595 ft | 333 kts | 121° |
| 2026-05-05 18:16 | 49.85609 | 8.83377 | 12442 ft | 338 kts | 121° |
| 2026-05-05 18:16 | 49.84448 | 8.86592 | 13253 ft | 345 kts | 122° |
| 2026-05-05 18:17 | 49.83263 | 8.89840 | 14035 ft | 349 kts | 122° |
| 2026-05-05 18:17 | 49.82054 | 8.93139 | 14815 ft | 352 kts | 122° |
| 2026-05-05 18:17 | 49.80841 | 8.96456 | 15602 ft | 355 kts | 122° |
| 2026-05-05 18:17 | 49.79618 | 8.99791 | 16398 ft | 357 kts | 122° |
| 2026-05-05 18:18 | 49.78391 | 9.03147 | 17203 ft | 360 kts | 122° |
| 2026-05-05 18:18 | 49.77177 | 9.06481 | 17981 ft | 362 kts | 122° |
| 2026-05-05 18:18 | 49.76120 | 9.10049 | 18643 ft | 369 kts | 111° |
| 2026-05-05 18:18 | 49.75427 | 9.13898 | 19317 ft | 372 kts | 108° |
| 2026-05-05 18:19 | 49.74586 | 9.17689 | 20017 ft | 373 kts | 114° |
| 2026-05-05 18:19 | 49.73571 | 9.21384 | 20601 ft | 374 kts | 116° |
| 2026-05-05 18:19 | 49.72474 | 9.25025 | 20786 ft | 374 kts | 117° |
| 2026-05-05 18:19 | 49.71377 | 9.28592 | 20831 ft | 359 kts | 117° |
| 2026-05-05 18:20 | 49.70346 | 9.32009 | 20830 ft | 345 kts | 117° |
| 2026-05-05 18:20 | 49.69360 | 9.35360 | 20833 ft | 341 kts | 116° |
| 2026-05-05 18:20 | 49.68404 | 9.38699 | 20832 ft | 340 kts | 116° |
| 2026-05-05 18:20 | 49.67458 | 9.42044 | 20832 ft | 340 kts | 116° |
| 2026-05-05 18:21 | 49.66516 | 9.45392 | 20833 ft | 340 kts | 116° |
| 2026-05-05 18:21 | 49.65576 | 9.48738 | 20817 ft | 340 kts | 115° |
| 2026-05-05 18:21 | 49.64634 | 9.52083 | 20830 ft | 340 kts | 116° |
| 2026-05-05 18:21 | 49.63688 | 9.55422 | 20833 ft | 340 kts | 116° |
| 2026-05-05 18:22 | 49.62739 | 9.58764 | 20834 ft | 340 kts | 116° |
| 2026-05-05 18:22 | 49.61790 | 9.62108 | 20835 ft | 340 kts | 116° |
| 2026-05-05 18:22 | 49.60843 | 9.65446 | 20836 ft | 340 kts | 116° |
| 2026-05-05 18:22 | 49.59825 | 9.68790 | 20840 ft | 355 kts | 120° |
| 2026-05-05 18:23 | 49.58611 | 9.72197 | 20821 ft | 366 kts | 121° |
| 2026-05-05 18:23 | 49.57374 | 9.75617 | 20356 ft | 363 kts | 121° |
| 2026-05-05 18:23 | 49.56152 | 9.79007 | 19848 ft | 361 kts | 121° |
| 2026-05-05 18:23 | 49.54939 | 9.82384 | 19374 ft | 359 kts | 121° |
| 2026-05-05 18:24 | 49.53743 | 9.85748 | 18893 ft | 358 kts | 121° |
| 2026-05-05 18:24 | 49.52554 | 9.89108 | 18414 ft | 356 kts | 121° |
| 2026-05-05 18:24 | 49.51381 | 9.92460 | 17907 ft | 356 kts | 119° |
| 2026-05-05 18:24 | 49.50387 | 9.95948 | 17375 ft | 356 kts | 115° |
| 2026-05-05 18:25 | 49.49450 | 9.99470 | 16854 ft | 356 kts | 114° |
| 2026-05-05 18:25 | 49.49151 | 10.00616 | 16675 ft | 355 kts | 114° |
| 2026-05-05 18:25 | 49.47627 | 10.06537 | 15821 ft | 355 kts | 114° |
| 2026-05-05 18:25 | 49.46725 | 10.10049 | 15322 ft | 355 kts | 114° |
| 2026-05-05 18:26 | 49.45811 | 10.13584 | 14829 ft | 354 kts | 114° |
| 2026-05-05 18:26 | 49.44989 | 10.17142 | 14345 ft | 356 kts | 105° |
| 2026-05-05 18:26 | 49.44660 | 10.20920 | 13870 ft | 357 kts | 98° |
| 2026-05-05 18:26 | 49.44400 | 10.24714 | 13368 ft | 356 kts | 97° |
| 2026-05-05 18:27 | 49.44145 | 10.28497 | 12838 ft | 356 kts | 97° |
| 2026-05-05 18:27 | 49.43893 | 10.32268 | 12307 ft | 354 kts | 98° |
| 2026-05-05 18:27 | 49.43640 | 10.36022 | 11793 ft | 352 kts | 98° |
| 2026-05-05 18:27 | 49.43389 | 10.39695 | 11300 ft | 350 kts | 98° |
| 2026-05-05 18:28 | 49.42891 | 10.46990 | 10811 ft | 330 kts | 98° |
| 2026-05-05 18:28 | 49.42658 | 10.50403 | 10788 ft | 315 kts | 98° |
| 2026-05-05 18:28 | 49.42503 | 10.52645 | 10610 ft | 312 kts | 98° |
| 2026-05-05 18:29 | 49.42194 | 10.57004 | 10174 ft | 308 kts | 99° |
| 2026-05-05 18:29 | 49.41960 | 10.60273 | 9825 ft | 306 kts | 99° |
| 2026-05-05 18:29 | 49.41728 | 10.63510 | 9448 ft | 305 kts | 99° |
| 2026-05-05 18:29 | 49.41499 | 10.66737 | 9052 ft | 303 kts | 99° |
| 2026-05-05 18:30 | 49.41346 | 10.68910 | 8785 ft | 302 kts | 99° |
| 2026-05-05 18:30 | 49.41121 | 10.72100 | 8370 ft | 300 kts | 99° |
| 2026-05-05 18:30 | 49.40894 | 10.75279 | 7975 ft | 299 kts | 99° |
| 2026-05-05 18:30 | 49.40664 | 10.78444 | 7591 ft | 297 kts | 100° |
| 2026-05-05 18:31 | 49.40434 | 10.81582 | 7234 ft | 295 kts | 99° |
| 2026-05-05 18:31 | 49.40205 | 10.84717 | 6860 ft | 294 kts | 99° |
| 2026-05-05 18:31 | 49.39978 | 10.87824 | 6498 ft | 293 kts | 99° |
| 2026-05-05 18:31 | 49.39751 | 10.90926 | 6126 ft | 291 kts | 99° |
| 2026-05-05 18:32 | 49.39525 | 10.94006 | 5730 ft | 290 kts | 99° |
| 2026-05-05 18:32 | 49.39302 | 10.97079 | 5363 ft | 288 kts | 99° |
| 2026-05-05 18:32 | 49.39080 | 11.00119 | 5046 ft | 285 kts | 98° |
| 2026-05-05 18:32 | 49.38857 | 11.03143 | 5001 ft | 286 kts | 99° |
| 2026-05-05 18:33 | 49.38634 | 11.06142 | 5007 ft | 287 kts | 99° |
| 2026-05-05 18:33 | 49.38404 | 11.09224 | 5008 ft | 287 kts | 99° |
| 2026-05-05 18:33 | 49.38176 | 11.12265 | 5006 ft | 287 kts | 99° |
| 2026-05-05 18:33 | 49.37951 | 11.15265 | 5005 ft | 287 kts | 99° |
| 2026-05-05 18:34 | 49.37720 | 11.18304 | 5006 ft | 287 kts | 99° |
| 2026-05-05 18:34 | 49.37488 | 11.21344 | 5001 ft | 287 kts | 98° |
| 2026-05-05 18:34 | 49.37257 | 11.24369 | 4941 ft | 286 kts | 98° |
| 2026-05-05 18:34 | 49.37027 | 11.27372 | 4680 ft | 280 kts | 98° |
| 2026-05-05 18:35 | 49.36804 | 11.30314 | 4422 ft | 274 kts | 98° |
| 2026-05-05 18:35 | 49.36583 | 11.33223 | 4171 ft | 268 kts | 98° |
| 2026-05-05 18:35 | 49.36505 | 11.36033 | 4009 ft | 259 kts | 81° |
| 2026-05-05 18:35 | 49.37205 | 11.38474 | 3989 ft | 249 kts | 49° |
| 2026-05-05 18:36 | 49.38507 | 11.40065 | 3995 ft | 237 kts | 21° |
| 2026-05-05 18:36 | 49.40002 | 11.40960 | 3994 ft | 226 kts | 15° |
| 2026-05-05 18:36 | 49.41444 | 11.41731 | 3995 ft | 212 kts | 14° |
| 2026-05-05 18:36 | 49.42854 | 11.42053 | 3991 ft | 198 kts | 345° |
| 2026-05-05 18:37 | 49.44032 | 11.41183 | 3992 ft | 188 kts | 318° |
| 2026-05-05 18:37 | 49.45049 | 11.39952 | 3987 ft | 186 kts | 315° |
| 2026-05-05 18:37 | 49.46040 | 11.38684 | 3987 ft | 185 kts | 314° |
| 2026-05-05 18:37 | 49.46804 | 11.37148 | 3987 ft | 179 kts | 291° |
| 2026-05-05 18:38 | 49.47117 | 11.35325 | 3993 ft | 177 kts | 275° |
| 2026-05-05 18:38 | 49.47306 | 11.33460 | 3986 ft | 177 kts | 276° |
| 2026-05-05 18:38 | 49.47497 | 11.31579 | 3857 ft | 177 kts | 276° |
| 2026-05-05 18:38 | 49.47686 | 11.29708 | 3655 ft | 176 kts | 276° |
| 2026-05-05 18:39 | 49.47867 | 11.27910 | 3434 ft | 162 kts | 277° |
| 2026-05-05 18:39 | 49.48029 | 11.26315 | 3239 ft | 140 kts | 277° |
| 2026-05-05 18:39 | 49.48171 | 11.24901 | 3078 ft | 130 kts | 277° |
| 2026-05-05 18:39 | 49.48306 | 11.23543 | 2903 ft | 127 kts | 277° |
| 2026-05-05 18:40 | 49.48439 | 11.22222 | 2742 ft | 124 kts | 277° |
| 2026-05-05 18:40 | 49.48569 | 11.20917 | 2576 ft | 123 kts | 277° |
| 2026-05-05 18:40 | 49.48698 | 11.19621 | 2419 ft | 122 kts | 277° |
| 2026-05-05 18:40 | 49.48827 | 11.18327 | 2255 ft | 122 kts | 278° |
| 2026-05-05 18:41 | 49.48955 | 11.17042 | 2096 ft | 122 kts | 278° |
| 2026-05-05 18:41 | 49.49083 | 11.15752 | 1909 ft | 123 kts | 278° |
| 2026-05-05 18:41 | 49.49212 | 11.14446 | 1744 ft | 123 kts | 278° |
| 2026-05-05 18:41 | 49.49338 | 11.13157 | 1578 ft | 124 kts | 278° |
| 2026-05-05 18:42 | 49.49465 | 11.11840 | 1413 ft | 124 kts | 277° |
| 2026-05-05 18:42 | 49.49600 | 11.10546 | 1241 ft | 123 kts | 278° |
| 2026-05-05 18:42 | 49.49730 | 11.09243 | 1056 ft | 118 kts | 278° |
| 2026-05-05 18:42 | 49.49832 | 11.08191 | 1028 ft | 79 kts | 278° |
| 2026-05-05 18:43 | 49.49888 | 11.07613 | 1032 ft | 35 kts | 278° |
| 2026-05-05 18:43 | 49.49922 | 11.07260 | 1027 ft | 33 kts | 278° |
| 2026-05-05 18:43 | 49.49921 | 11.07033 | 1022 ft | 17 kts | 218° |
| 2026-05-05 18:43 | 49.49814 | 11.07055 | 1021 ft | 11 kts | 157° |
| 2026-05-05 18:44 | 49.49796 | 11.07067 | 1022 ft | 0 kts | 157° |
| 2026-05-05 18:44 | 49.49776 | 11.07080 | 1022 ft | 6 kts | 156° |
| 2026-05-05 18:44 | 49.49746 | 11.07127 | 1022 ft | 9 kts | 113° |
| 2026-05-05 18:44 | 49.49732 | 11.07283 | 1026 ft | 17 kts | 99° |
| 2026-05-05 18:45 | 49.49713 | 11.07458 | 1029 ft | 16 kts | 98° |
| 2026-05-05 18:45 | 49.49697 | 11.07621 | 1032 ft | 15 kts | 97° |
| 2026-05-05 18:45 | 49.49669 | 11.07759 | 1031 ft | 13 kts | 138° |
| 2026-05-05 18:45 | 49.49597 | 11.07774 | 1030 ft | 10 kts | 150° |
| 2026-05-05 18:46 | 49.49538 | 11.07796 | 1028 ft | 9 kts | 189° |
| 2026-05-05 18:46 | 49.49515 | 11.07791 | 1028 ft | 0 kts | 189° |